Time,TemperatureF,DewpointF,PressureIn,WindDirection,WindDirectionDegrees,WindSpeedMPH,WindSpeedGustMPH,Humidity,HourlyPrecipIn,Conditions,Clouds,dailyrainin,SoftwareType,DateUTC
2013-06-03 00:00:00,64.9,64.0,29.93,WNW,292,1.4,10.0,96,0.00,,,0.00,Rainwise IP-100,2013-06-03 04:00:00,
2013-06-03 00:01:00,64.9,64.0,29.93,SSW,202,6.3,10.0,96,0.00,,,0.00,Rainwise IP-100,2013-06-03 04:01:00,
2013-06-03 00:07:00,64.7,63.5,29.93,SSW,202,13.3,13.3,96,0.00,,,0.00,Rainwise IP-100,2013-06-03 04:07:00,
2013-06-03 00:12:00,64.6,63.5,29.93,WSW,247,4.2,11.0,96,0.00,,,0.00,Rainwise IP-100,2013-06-03 04:12:00,
2013-06-03 00:17:00,64.5,63.5,29.93,West,270,4.2,12.4,96,0.00,,,0.00,Rainwise IP-100,2013-06-03 04:17:00,
2013-06-03 00:21:00,64.5,63.5,29.93,WSW,247,8.4,9.3,97,0.00,,,0.00,Rainwise IP-100,2013-06-03 04:21:00,
2013-06-03 00:26:00,64.4,63.5,29.93,WNW,292,2.1,12.6,97,0.00,,,0.01,Rainwise IP-100,2013-06-03 04:26:00,
2013-06-03 00:31:00,64.4,63.5,29.93,WNW,292,2.6,11.4,97,0.06,,,0.01,Rainwise IP-100,2013-06-03 04:31:00,
2013-06-03 00:36:00,64.4,63.5,29.93,SSW,202,6.3,10.7,97,0.06,,,0.01,Rainwise IP-100,2013-06-03 04:36:00,
2013-06-03 00:41:00,64.4,64.0,29.93,SSW,202,3.5,11.9,98,0.00,,,0.01,Rainwise IP-100,2013-06-03 04:41:00,
2013-06-03 00:46:00,64.4,64.0,29.92,WSW,247,0.0,12.8,98,0.00,,,0.01,Rainwise IP-100,2013-06-03 04:46:00,
2013-06-03 00:51:00,64.3,64.0,29.92,WSW,247,8.9,10.5,98,0.00,,,0.01,Rainwise IP-100,2013-06-03 04:51:00,
2013-06-03 00:56:00,64.3,64.0,29.93,West,270,5.6,9.3,98,0.00,,,0.01,Rainwise IP-100,2013-06-03 04:56:00,
2013-06-03 01:01:00,64.4,64.0,29.92,WSW,247,1.9,9.6,98,0.06,,,0.02,Rainwise IP-100,2013-06-03 05:01:00,
2013-06-03 01:06:00,64.3,64.0,29.93,WSW,247,2.3,8.2,98,0.06,,,0.02,Rainwise IP-100,2013-06-03 05:06:00,
2013-06-03 01:11:00,64.3,64.0,29.92,SSW,202,4.2,11.7,99,0.00,,,0.02,Rainwise IP-100,2013-06-03 05:11:00,
2013-06-03 01:16:00,64.4,64.0,29.93,WNW,292,1.9,10.0,99,0.00,,,0.02,Rainwise IP-100,2013-06-03 05:16:00,
2013-06-03 01:21:00,64.5,64.0,29.92,WSW,247,3.3,10.5,99,0.00,,,0.02,Rainwise IP-100,2013-06-03 05:21:00,
2013-06-03 01:26:00,64.5,64.0,29.92,SW,225,2.3,9.8,99,0.00,,,0.02,Rainwise IP-100,2013-06-03 05:26:00,
2013-06-03 01:31:00,64.6,64.0,29.92,North,360,0.0,6.5,99,0.00,,,0.02,Rainwise IP-100,2013-06-03 05:31:00,
2013-06-03 01:36:00,64.6,64.0,29.92,NW,315,5.6,6.3,99,0.00,,,0.02,Rainwise IP-100,2013-06-03 05:36:00,
2013-06-03 01:41:00,64.6,64.0,29.92,WSW,247,2.3,9.8,99,0.00,,,0.02,Rainwise IP-100,2013-06-03 05:41:00,
2013-06-03 01:46:00,64.5,64.0,29.92,WSW,247,0.0,9.1,99,0.00,,,0.02,Rainwise IP-100,2013-06-03 05:46:00,
2013-06-03 01:51:00,64.7,64.0,29.92,NW,315,6.3,7.5,99,0.00,,,0.02,Rainwise IP-100,2013-06-03 05:51:00,
2013-06-03 01:56:00,64.9,64.5,29.92,NW,315,7.7,7.7,99,0.00,,,0.02,Rainwise IP-100,2013-06-03 05:56:00,
2013-06-03 02:01:00,64.9,64.5,29.92,North,360,2.8,12.1,99,0.00,,,0.02,Rainwise IP-100,2013-06-03 06:01:00,
2013-06-03 02:06:00,64.8,64.5,29.91,NW,315,4.2,11.2,99,0.00,,,0.02,Rainwise IP-100,2013-06-03 06:06:00,
2013-06-03 02:11:00,64.6,64.0,29.92,WSW,247,6.1,11.0,99,0.00,,,0.02,Rainwise IP-100,2013-06-03 06:11:00,
2013-06-03 02:16:00,64.5,64.0,29.91,SSE,157,6.8,6.8,99,0.00,,,0.02,Rainwise IP-100,2013-06-03 06:16:00,
2013-06-03 02:21:00,64.5,64.0,29.92,SSW,202,3.3,7.0,99,0.00,,,0.02,Rainwise IP-100,2013-06-03 06:21:00,
2013-06-03 02:26:00,64.4,64.0,29.91,WSW,247,2.8,11.9,99,0.00,,,0.02,Rainwise IP-100,2013-06-03 06:26:00,
2013-06-03 02:31:00,64.3,64.0,29.91,SW,225,4.4,8.9,99,0.00,,,0.02,Rainwise IP-100,2013-06-03 06:31:00,
2013-06-03 02:36:00,64.2,63.5,29.91,SW,225,4.7,9.3,99,0.00,,,0.02,Rainwise IP-100,2013-06-03 06:36:00,
2013-06-03 02:41:00,64.3,64.0,29.91,SSW,202,1.6,9.3,99,0.06,,,0.03,Rainwise IP-100,2013-06-03 06:41:00,
2013-06-03 02:46:00,64.5,64.0,29.90,North,360,3.0,10.0,99,1.38,,,0.28,Rainwise IP-100,2013-06-03 06:46:00,
2013-06-03 02:51:00,64.7,64.5,29.91,SSW,202,4.7,12.4,100,1.68,,,0.31,Rainwise IP-100,2013-06-03 06:51:00,
2013-06-03 02:56:00,64.5,64.5,29.91,SSE,157,1.2,12.4,100,0.36,,,0.31,Rainwise IP-100,2013-06-03 06:56:00,
2013-06-03 03:01:00,64.2,64.0,29.91,ESE,112,3.7,10.0,100,0.00,,,0.31,Rainwise IP-100,2013-06-03 07:01:00,
2013-06-03 03:06:00,63.9,64.0,29.91,WSW,247,5.4,13.3,100,0.00,,,0.31,Rainwise IP-100,2013-06-03 07:06:00,
2013-06-03 03:11:00,63.7,63.5,29.89,WSW,247,6.8,12.4,100,0.00,,,0.31,Rainwise IP-100,2013-06-03 07:11:00,
2013-06-03 03:16:00,63.7,63.5,29.90,SSW,202,2.1,15.9,100,0.00,,,0.31,Rainwise IP-100,2013-06-03 07:16:00,
2013-06-03 03:21:00,63.6,63.5,29.90,ESE,112,3.0,11.4,100,0.00,,,0.31,Rainwise IP-100,2013-06-03 07:21:00,
2013-06-03 03:26:00,63.6,63.5,29.90,NW,315,4.4,10.5,100,0.00,,,0.31,Rainwise IP-100,2013-06-03 07:26:00,
2013-06-03 03:31:00,63.6,63.5,29.89,WSW,247,3.0,15.9,100,0.00,,,0.31,Rainwise IP-100,2013-06-03 07:31:00,
2013-06-03 03:36:00,63.7,63.5,29.89,NW,315,0.0,11.7,100,0.00,,,0.31,Rainwise IP-100,2013-06-03 07:36:00,
2013-06-03 03:41:00,63.8,64.0,29.90,WSW,247,4.2,12.8,100,0.00,,,0.31,Rainwise IP-100,2013-06-03 07:41:00,
2013-06-03 03:46:00,63.9,64.0,29.90,NE,45,1.6,13.3,100,0.06,,,0.32,Rainwise IP-100,2013-06-03 07:46:00,
2013-06-03 03:51:00,64.1,64.0,29.90,WSW,247,7.9,7.9,100,0.06,,,0.32,Rainwise IP-100,2013-06-03 07:51:00,
2013-06-03 03:56:00,64.2,64.0,29.90,SW,225,2.3,14.2,100,0.00,,,0.32,Rainwise IP-100,2013-06-03 07:56:00,
2013-06-03 04:01:00,64.6,64.5,29.90,WSW,247,19.4,19.4,100,0.72,,,0.45,Rainwise IP-100,2013-06-03 08:01:00,
2013-06-03 04:06:00,65.5,65.5,29.90,NW,315,7.2,26.1,100,1.14,,,0.52,Rainwise IP-100,2013-06-03 08:06:00,
2013-06-03 04:11:00,66.1,66.0,29.90,NNW,337,0.0,20.8,100,0.60,,,0.55,Rainwise IP-100,2013-06-03 08:11:00,
2013-06-03 04:16:00,66.0,66.0,29.90,SW,225,3.3,15.6,100,0.24,,,0.55,Rainwise IP-100,2013-06-03 08:16:00,
2013-06-03 04:21:00,65.8,66.0,29.90,North,360,4.4,13.8,100,0.12,,,0.56,Rainwise IP-100,2013-06-03 08:21:00,
2013-06-03 04:26:00,65.8,66.0,29.90,NW,315,3.0,11.9,100,0.06,,,0.56,Rainwise IP-100,2013-06-03 08:26:00,
2013-06-03 04:31:00,65.8,66.0,29.91,SSE,157,3.7,11.7,100,0.00,,,0.56,Rainwise IP-100,2013-06-03 08:31:00,
2013-06-03 04:36:00,65.6,65.5,29.91,NW,315,5.4,11.2,100,0.00,,,0.56,Rainwise IP-100,2013-06-03 08:36:00,
2013-06-03 04:41:00,65.1,65.0,29.91,SW,225,6.5,14.7,100,0.00,,,0.56,Rainwise IP-100,2013-06-03 08:41:00,
2013-06-03 04:46:00,64.4,64.5,29.91,NW,315,7.5,19.1,100,0.00,,,0.56,Rainwise IP-100,2013-06-03 08:46:00,
2013-06-03 04:51:00,64.1,64.0,29.91,North,360,5.6,14.0,100,0.06,,,0.57,Rainwise IP-100,2013-06-03 08:51:00,
2013-06-03 04:56:00,63.8,64.0,29.91,WSW,247,7.5,13.3,100,0.12,,,0.58,Rainwise IP-100,2013-06-03 08:56:00,
2013-06-03 05:01:00,63.6,63.5,29.91,North,360,4.9,8.9,100,0.12,,,0.59,Rainwise IP-100,2013-06-03 09:01:00,
2013-06-03 05:06:00,63.6,63.5,29.92,NW,315,4.4,10.0,100,0.12,,,0.60,Rainwise IP-100,2013-06-03 09:06:00,
2013-06-03 05:11:00,63.6,63.5,29.91,SW,225,1.9,12.1,100,0.06,,,0.60,Rainwise IP-100,2013-06-03 09:11:00,
2013-06-03 05:16:00,63.7,63.5,29.91,North,360,4.2,9.3,100,0.06,,,0.61,Rainwise IP-100,2013-06-03 09:16:00,
2013-06-03 05:21:00,63.7,63.5,29.91,WSW,247,2.3,12.6,100,0.06,,,0.61,Rainwise IP-100,2013-06-03 09:21:00,
2013-06-03 05:26:00,63.7,63.5,29.90,NW,315,4.4,11.9,100,0.00,,,0.61,Rainwise IP-100,2013-06-03 09:26:00,
2013-06-03 05:31:00,63.9,64.0,29.91,WSW,247,1.2,11.7,100,0.00,,,0.61,Rainwise IP-100,2013-06-03 09:31:00,
2013-06-03 05:36:00,64.2,64.0,29.90,NW,315,11.0,11.9,100,0.06,,,0.63,Rainwise IP-100,2013-06-03 09:36:00,
2013-06-03 05:41:00,64.4,64.5,29.90,North,360,4.7,13.3,100,0.18,,,0.65,Rainwise IP-100,2013-06-03 09:41:00,
2013-06-03 05:46:00,64.4,64.5,29.90,NW,315,5.6,9.6,100,0.18,,,0.66,Rainwise IP-100,2013-06-03 09:46:00,
2013-06-03 05:51:00,64.4,64.5,29.90,NW,315,7.2,10.7,100,0.18,,,0.67,Rainwise IP-100,2013-06-03 09:51:00,
2013-06-03 05:56:00,64.2,64.0,29.90,NW,315,4.9,11.7,100,0.18,,,0.68,Rainwise IP-100,2013-06-03 09:56:00,
2013-06-03 06:01:00,64.0,64.0,29.90,North,360,6.3,10.0,100,0.06,,,0.68,Rainwise IP-100,2013-06-03 10:01:00,
2013-06-03 06:06:00,64.0,64.0,29.91,WSW,247,2.8,12.1,100,0.00,,,0.68,Rainwise IP-100,2013-06-03 10:06:00,
2013-06-03 06:11:00,64.1,64.0,29.91,SW,225,1.4,12.1,100,0.00,,,0.68,Rainwise IP-100,2013-06-03 10:11:00,
2013-06-03 06:16:00,63.9,64.0,29.91,North,360,5.6,13.3,100,0.00,,,0.68,Rainwise IP-100,2013-06-03 10:16:00,
2013-06-03 06:21:00,63.7,63.5,29.91,North,360,5.6,11.9,100,0.06,,,0.69,Rainwise IP-100,2013-06-03 10:21:00,
2013-06-03 06:26:00,63.7,63.5,29.91,NNW,337,3.7,11.9,100,0.06,,,0.69,Rainwise IP-100,2013-06-03 10:26:00,
2013-06-03 06:31:00,63.7,63.5,29.91,NE,45,1.6,12.8,100,0.00,,,0.69,Rainwise IP-100,2013-06-03 10:31:00,
2013-06-03 06:36:00,63.7,63.5,29.91,SSE,157,0.0,13.1,100,0.06,,,0.70,Rainwise IP-100,2013-06-03 10:36:00,
2013-06-03 06:41:00,63.7,63.5,29.91,NW,315,2.3,11.7,100,0.06,,,0.70,Rainwise IP-100,2013-06-03 10:41:00,
2013-06-03 06:46:00,63.6,63.5,29.91,WSW,247,4.4,9.3,100,0.00,,,0.70,Rainwise IP-100,2013-06-03 10:46:00,
2013-06-03 06:51:00,63.7,63.5,29.91,WSW,247,7.7,14.7,100,0.00,,,0.70,Rainwise IP-100,2013-06-03 10:51:00,
2013-06-03 06:56:00,63.8,64.0,29.90,NW,315,6.8,10.5,100,0.00,,,0.70,Rainwise IP-100,2013-06-03 10:56:00,
2013-06-03 07:01:00,64.0,64.0,29.91,SW,225,3.0,13.3,100,0.06,,,0.71,Rainwise IP-100,2013-06-03 11:01:00,
2013-06-03 07:06:00,64.1,64.0,29.91,North,360,4.7,14.9,100,0.06,,,0.71,Rainwise IP-100,2013-06-03 11:06:00,
2013-06-03 07:11:00,64.1,64.0,29.92,NW,315,2.8,17.0,100,0.00,,,0.71,Rainwise IP-100,2013-06-03 11:11:00,
2013-06-03 07:16:00,64.0,64.0,29.92,NW,315,9.3,14.7,100,0.00,,,0.71,Rainwise IP-100,2013-06-03 11:16:00,
2013-06-03 07:21:00,64.0,64.0,29.92,NW,315,5.8,14.2,100,0.06,,,0.72,Rainwise IP-100,2013-06-03 11:21:00,
2013-06-03 07:26:00,64.1,64.0,29.92,WSW,247,4.4,12.1,100,0.06,,,0.72,Rainwise IP-100,2013-06-03 11:26:00,
2013-06-03 07:31:00,64.2,64.0,29.92,WSW,247,9.3,12.1,100,0.00,,,0.72,Rainwise IP-100,2013-06-03 11:31:00,
2013-06-03 07:36:00,64.3,64.5,29.92,WSW,247,2.3,12.4,100,0.00,,,0.72,Rainwise IP-100,2013-06-03 11:36:00,
2013-06-03 07:41:00,64.4,64.5,29.92,NNW,337,3.0,14.9,100,0.06,,,0.73,Rainwise IP-100,2013-06-03 11:41:00,
2013-06-03 07:46:00,64.4,64.5,29.92,NW,315,6.1,12.8,100,0.06,,,0.73,Rainwise IP-100,2013-06-03 11:46:00,
2013-06-03 07:51:00,64.4,64.5,29.92,NW,315,3.5,13.3,100,0.00,,,0.73,Rainwise IP-100,2013-06-03 11:51:00,
2013-06-03 07:56:00,64.5,64.5,29.92,NW,315,5.1,11.7,100,0.00,,,0.73,Rainwise IP-100,2013-06-03 11:56:00,
2013-06-03 08:01:00,64.6,64.5,29.92,WSW,247,2.3,11.9,100,0.00,,,0.73,Rainwise IP-100,2013-06-03 12:01:00,
2013-06-03 08:06:00,64.4,64.5,29.92,NW,315,5.8,11.2,100,0.00,,,0.73,Rainwise IP-100,2013-06-03 12:06:00,
2013-06-03 08:11:00,64.4,64.5,29.92,North,360,2.3,11.4,100,0.00,,,0.73,Rainwise IP-100,2013-06-03 12:11:00,
2013-06-03 08:16:00,64.5,64.5,29.92,SW,225,3.0,13.1,100,0.00,,,0.73,Rainwise IP-100,2013-06-03 12:16:00,
2013-06-03 08:21:00,64.7,64.5,29.92,WSW,247,4.7,8.2,100,0.00,,,0.73,Rainwise IP-100,2013-06-03 12:21:00,
2013-06-03 08:26:00,64.8,65.0,29.92,North,360,3.5,6.8,100,0.00,,,0.73,Rainwise IP-100,2013-06-03 12:26:00,
2013-06-03 08:31:00,64.9,65.0,29.92,WNW,292,2.3,8.4,100,0.00,,,0.73,Rainwise IP-100,2013-06-03 12:31:00,
2013-06-03 08:36:00,65.0,65.0,29.92,WNW,292,5.1,7.0,100,0.00,,,0.73,Rainwise IP-100,2013-06-03 12:36:00,
2013-06-03 08:41:00,65.1,65.0,29.92,WNW,292,1.9,7.2,100,0.00,,,0.73,Rainwise IP-100,2013-06-03 12:41:00,
2013-06-03 08:46:00,65.0,65.0,29.92,WNW,292,2.3,6.5,100,0.00,,,0.73,Rainwise IP-100,2013-06-03 12:46:00,
2013-06-03 08:51:00,65.0,65.0,29.92,WNW,292,0.0,5.8,100,0.00,,,0.73,Rainwise IP-100,2013-06-03 12:51:00,
2013-06-03 08:56:00,65.1,65.0,29.92,WSW,247,2.1,4.9,100,0.00,,,0.73,Rainwise IP-100,2013-06-03 12:56:00,
2013-06-03 09:01:00,65.2,65.0,29.92,WNW,292,3.5,4.7,100,0.00,,,0.73,Rainwise IP-100,2013-06-03 13:01:00,
2013-06-03 09:06:00,65.2,65.0,29.92,WNW,292,4.9,5.1,100,0.00,,,0.73,Rainwise IP-100,2013-06-03 13:06:00,
2013-06-03 09:11:00,65.1,65.0,29.92,WSW,247,2.1,7.7,100,0.00,,,0.73,Rainwise IP-100,2013-06-03 13:11:00,
2013-06-03 09:16:00,64.9,65.0,29.92,WNW,292,2.8,7.9,100,0.00,,,0.73,Rainwise IP-100,2013-06-03 13:16:00,
2013-06-03 09:21:00,64.8,65.0,29.92,WSW,247,1.4,6.1,100,0.00,,,0.73,Rainwise IP-100,2013-06-03 13:21:00,
2013-06-03 09:26:00,64.9,65.0,29.92,WSW,247,1.9,4.4,100,0.00,,,0.73,Rainwise IP-100,2013-06-03 13:26:00,
2013-06-03 09:31:00,64.9,65.0,29.92,North,360,3.0,4.7,100,0.00,,,0.73,Rainwise IP-100,2013-06-03 13:31:00,
2013-06-03 09:36:00,64.9,65.0,29.92,WNW,292,2.3,4.9,100,0.00,,,0.73,Rainwise IP-100,2013-06-03 13:36:00,
2013-06-03 09:41:00,64.9,65.0,29.92,North,360,0.0,5.8,100,0.00,,,0.73,Rainwise IP-100,2013-06-03 13:41:00,
2013-06-03 09:46:00,64.8,65.0,29.91,SSW,202,0.0,4.7,100,0.00,,,0.73,Rainwise IP-100,2013-06-03 13:46:00,
2013-06-03 09:51:00,64.9,65.0,29.91,SSW,202,0.0,2.1,100,0.06,,,0.74,Rainwise IP-100,2013-06-03 13:51:00,
2013-06-03 09:56:00,65.2,65.0,29.91,North,360,1.2,2.8,100,0.06,,,0.74,Rainwise IP-100,2013-06-03 13:56:00,
2013-06-03 10:01:00,65.2,65.0,29.91,SSW,202,1.6,4.9,100,0.00,,,0.74,Rainwise IP-100,2013-06-03 14:01:00,
2013-06-03 10:06:00,65.1,65.0,29.91,SSW,202,0.0,4.0,100,0.00,,,0.74,Rainwise IP-100,2013-06-03 14:06:00,
2013-06-03 10:11:00,64.9,65.0,29.91,SSW,202,1.2,4.7,100,0.06,,,0.75,Rainwise IP-100,2013-06-03 14:11:00,
2013-06-03 10:16:00,64.7,64.5,29.91,NNW,337,1.9,5.4,100,0.12,,,0.76,Rainwise IP-100,2013-06-03 14:16:00,
2013-06-03 10:21:00,64.5,64.5,29.92,WSW,247,1.2,5.4,100,0.24,,,0.79,Rainwise IP-100,2013-06-03 14:21:00,
2013-06-03 10:26:00,64.2,64.0,29.91,WSW,247,0.0,4.2,100,0.36,,,0.82,Rainwise IP-100,2013-06-03 14:26:00,
2013-06-03 10:31:00,64.1,64.0,29.91,ESE,112,0.0,4.4,100,0.48,,,0.88,Rainwise IP-100,2013-06-03 14:31:00,
2013-06-03 10:36:00,64.0,64.0,29.90,SSW,202,0.0,5.1,100,0.42,,,0.89,Rainwise IP-100,2013-06-03 14:36:00,
2013-06-03 10:41:00,63.9,64.0,29.92,WSW,247,3.0,5.8,100,0.24,,,0.92,Rainwise IP-100,2013-06-03 14:41:00,
2013-06-03 10:46:00,63.8,64.0,29.92,WSW,247,3.5,6.8,100,0.42,,,0.97,Rainwise IP-100,2013-06-03 14:46:00,
2013-06-03 10:51:00,63.7,63.5,29.91,SSE,157,0.0,5.6,100,0.48,,,1.00,Rainwise IP-100,2013-06-03 14:51:00,
2013-06-03 10:56:00,63.6,63.5,29.91,WSW,247,2.1,5.1,100,0.42,,,1.04,Rainwise IP-100,2013-06-03 14:56:00,
2013-06-03 11:01:00,63.7,63.5,29.91,SW,225,2.1,6.5,100,0.42,,,1.06,Rainwise IP-100,2013-06-03 15:01:00,
2013-06-03 11:06:00,63.9,64.0,29.91,SSE,157,2.8,9.3,100,0.60,,,1.15,Rainwise IP-100,2013-06-03 15:06:00,
2013-06-03 11:11:00,63.9,64.0,29.90,SSW,202,1.9,5.6,100,0.78,,,1.20,Rainwise IP-100,2013-06-03 15:11:00,
2013-06-03 11:16:00,63.9,64.0,29.90,South,180,0.0,4.7,100,0.60,,,1.23,Rainwise IP-100,2013-06-03 15:16:00,
2013-06-03 11:21:00,63.8,64.0,29.90,SSW,202,1.4,7.0,100,0.36,,,1.26,Rainwise IP-100,2013-06-03 15:21:00,
2013-06-03 11:26:00,63.8,64.0,29.91,WSW,247,3.0,4.2,100,0.36,,,1.30,Rainwise IP-100,2013-06-03 15:26:00,
2013-06-03 11:31:00,63.8,64.0,29.91,WSW,247,3.7,5.6,100,0.48,,,1.34,Rainwise IP-100,2013-06-03 15:31:00,
2013-06-03 11:36:00,63.7,63.5,29.90,WSW,247,2.8,7.0,100,0.66,,,1.42,Rainwise IP-100,2013-06-03 15:36:00,
2013-06-03 11:41:00,63.6,63.5,29.90,SW,225,2.8,5.1,100,1.26,,,1.55,Rainwise IP-100,2013-06-03 15:41:00,
2013-06-03 11:46:00,63.7,63.5,29.90,WSW,247,4.4,7.0,100,1.38,,,1.65,Rainwise IP-100,2013-06-03 15:46:00,
2013-06-03 11:51:00,63.9,64.0,29.91,NW,315,5.4,7.5,100,1.44,,,1.80,Rainwise IP-100,2013-06-03 15:51:00,
2013-06-03 11:56:00,64.2,64.0,29.90,NW,315,5.4,10.3,100,1.44,,,1.89,Rainwise IP-100,2013-06-03 15:56:00,
2013-06-03 12:01:00,64.4,64.5,29.90,NW,315,7.9,8.6,100,1.26,,,1.99,Rainwise IP-100,2013-06-03 16:01:00,
2013-06-03 12:06:00,64.4,64.5,29.90,WSW,247,5.1,11.7,100,0.72,,,1.99,Rainwise IP-100,2013-06-03 16:06:00,
2013-06-03 12:12:00,64.2,64.0,29.90,WSW,247,3.5,11.9,100,0.12,,,2.01,Rainwise IP-100,2013-06-03 16:12:00,
2013-06-03 12:17:00,64.1,64.0,29.90,WSW,247,11.0,18.0,100,0.12,,,2.01,Rainwise IP-100,2013-06-03 16:17:00,
2013-06-03 12:22:00,63.9,64.0,29.90,NW,315,11.4,12.6,100,0.06,,,2.03,Rainwise IP-100,2013-06-03 16:22:00,
2013-06-03 12:27:00,63.8,64.0,29.90,NW,315,6.3,14.5,100,0.18,,,2.04,Rainwise IP-100,2013-06-03 16:27:00,
2013-06-03 12:32:00,63.8,64.0,29.90,NW,315,8.6,12.1,100,0.12,,,2.04,Rainwise IP-100,2013-06-03 16:32:00,
2013-06-03 12:37:00,63.7,63.5,29.90,NW,315,10.0,17.3,100,0.06,,,2.05,Rainwise IP-100,2013-06-03 16:37:00,
2013-06-03 12:42:00,63.6,63.5,29.90,NW,315,14.9,15.9,100,0.06,,,2.06,Rainwise IP-100,2013-06-03 16:42:00,
2013-06-03 12:47:00,63.5,63.5,29.90,SSW,202,5.8,14.9,100,0.06,,,2.06,Rainwise IP-100,2013-06-03 16:47:00,
2013-06-03 12:52:00,63.6,63.5,29.90,NW,315,4.9,11.2,100,0.06,,,2.06,Rainwise IP-100,2013-06-03 16:52:00,
2013-06-03 12:57:00,63.8,64.0,29.90,NW,315,6.3,10.3,100,0.00,,,2.06,Rainwise IP-100,2013-06-03 16:57:00,
2013-06-03 13:02:00,64.0,64.0,29.90,NE,45,2.1,14.9,100,0.06,,,2.07,Rainwise IP-100,2013-06-03 17:02:00,
2013-06-03 13:07:00,64.2,64.0,29.90,NW,315,7.2,15.4,100,0.06,,,2.07,Rainwise IP-100,2013-06-03 17:07:00,
2013-06-03 13:12:00,64.3,64.5,29.90,NW,315,5.1,10.7,100,0.00,,,2.07,Rainwise IP-100,2013-06-03 17:12:00,
2013-06-03 13:17:00,64.5,64.5,29.90,NW,315,5.8,10.5,100,0.00,,,2.07,Rainwise IP-100,2013-06-03 17:17:00,
2013-06-03 13:22:00,64.6,64.5,29.90,North,360,2.8,12.1,100,0.00,,,2.07,Rainwise IP-100,2013-06-03 17:22:00,
2013-06-03 13:27:00,64.2,64.0,29.90,WNW,292,8.9,16.3,100,0.00,,,2.07,Rainwise IP-100,2013-06-03 17:27:00,
2013-06-03 13:32:00,63.8,64.0,29.90,North,360,7.2,14.2,100,0.00,,,2.07,Rainwise IP-100,2013-06-03 17:32:00,
2013-06-03 13:37:00,63.6,63.5,29.91,WNW,292,4.0,14.0,100,0.00,,,2.07,Rainwise IP-100,2013-06-03 17:37:00,
2013-06-03 13:42:00,63.5,63.5,29.91,North,360,5.4,10.3,100,0.00,,,2.07,Rainwise IP-100,2013-06-03 17:42:00,
2013-06-03 13:47:00,63.3,63.5,29.90,WNW,292,9.8,12.6,100,0.00,,,2.07,Rainwise IP-100,2013-06-03 17:47:00,
2013-06-03 13:52:00,63.3,63.5,29.91,NW,315,9.8,14.5,100,0.00,,,2.07,Rainwise IP-100,2013-06-03 17:52:00,
2013-06-03 13:57:00,63.3,63.5,29.90,WNW,292,3.5,14.0,100,0.00,,,2.07,Rainwise IP-100,2013-06-03 17:57:00,
2013-06-03 14:02:00,63.1,63.0,29.90,WNW,292,3.7,11.7,100,0.18,,,2.10,Rainwise IP-100,2013-06-03 18:02:00,
2013-06-03 14:07:00,63.1,63.0,29.90,WSW,247,3.5,7.5,100,0.18,,,2.10,Rainwise IP-100,2013-06-03 18:07:00,
2013-06-03 14:12:00,63.1,63.0,29.90,WNW,292,7.0,11.0,100,0.00,,,2.10,Rainwise IP-100,2013-06-03 18:12:00,
2013-06-03 14:17:00,63.1,63.0,29.90,WNW,292,3.0,10.5,100,0.00,,,2.10,Rainwise IP-100,2013-06-03 18:17:00,
2013-06-03 14:22:00,63.2,63.0,29.89,WNW,292,3.5,7.0,100,0.00,,,2.10,Rainwise IP-100,2013-06-03 18:22:00,
2013-06-03 14:27:00,63.3,63.5,29.90,WNW,292,4.9,7.0,100,0.00,,,2.10,Rainwise IP-100,2013-06-03 18:27:00,
2013-06-03 14:32:00,63.3,63.5,29.90,NNW,337,3.5,7.9,100,0.00,,,2.10,Rainwise IP-100,2013-06-03 18:32:00,
2013-06-03 14:37:00,63.3,63.5,29.89,WNW,292,1.6,9.6,100,0.00,,,2.10,Rainwise IP-100,2013-06-03 18:37:00,
2013-06-03 14:42:00,63.2,63.0,29.90,SSW,202,2.8,5.8,100,0.00,,,2.10,Rainwise IP-100,2013-06-03 18:42:00,
2013-06-03 14:47:00,63.1,63.0,29.89,WNW,292,4.7,11.2,100,0.00,,,2.10,Rainwise IP-100,2013-06-03 18:47:00,
2013-06-03 14:52:00,63.2,63.0,29.89,NNW,337,0.0,7.0,100,0.00,,,2.10,Rainwise IP-100,2013-06-03 18:52:00,
2013-06-03 14:57:00,63.3,63.5,29.89,WNW,292,2.8,8.6,100,0.00,,,2.10,Rainwise IP-100,2013-06-03 18:57:00,
2013-06-03 15:02:00,63.4,63.5,29.90,SW,225,3.0,7.5,100,0.00,,,2.10,Rainwise IP-100,2013-06-03 19:02:00,
2013-06-03 15:07:00,63.5,63.5,29.90,WNW,292,4.0,10.7,100,0.06,,,2.11,Rainwise IP-100,2013-06-03 19:07:00,
2013-06-03 15:12:00,63.5,63.5,29.89,WSW,247,1.2,6.5,100,0.06,,,2.11,Rainwise IP-100,2013-06-03 19:12:00,
2013-06-03 15:17:00,63.5,63.5,29.89,NW,315,2.3,7.9,100,0.00,,,2.11,Rainwise IP-100,2013-06-03 19:17:00,
2013-06-03 15:22:00,63.5,63.5,29.89,NW,315,3.5,7.2,100,0.00,,,2.11,Rainwise IP-100,2013-06-03 19:22:00,
2013-06-03 15:27:00,63.4,63.5,29.89,NW,315,2.3,7.7,100,0.00,,,2.11,Rainwise IP-100,2013-06-03 19:27:00,
2013-06-03 15:32:00,63.3,63.5,29.89,North,360,6.3,7.9,100,0.00,,,2.11,Rainwise IP-100,2013-06-03 19:32:00,
2013-06-03 15:37:00,63.2,63.0,29.89,NW,315,2.6,10.0,100,0.00,,,2.11,Rainwise IP-100,2013-06-03 19:37:00,
2013-06-03 15:42:00,63.0,63.0,29.89,NW,315,6.3,9.3,100,0.00,,,2.11,Rainwise IP-100,2013-06-03 19:42:00,
2013-06-03 15:47:00,62.8,63.0,29.89,North,360,6.5,9.8,100,0.00,,,2.11,Rainwise IP-100,2013-06-03 19:47:00,
2013-06-03 15:52:00,62.7,62.5,29.89,North,360,1.6,8.4,100,0.06,,,2.12,Rainwise IP-100,2013-06-03 19:52:00,
2013-06-03 15:57:00,62.6,62.5,29.89,WSW,247,0.0,5.6,100,0.18,,,2.15,Rainwise IP-100,2013-06-03 19:57:00,
2013-06-03 16:02:00,62.6,62.5,29.90,WSW,247,4.9,10.3,100,0.24,,,2.16,Rainwise IP-100,2013-06-03 20:02:00,
2013-06-03 16:07:00,62.5,62.5,29.89,WSW,247,5.8,15.6,100,0.24,,,2.18,Rainwise IP-100,2013-06-03 20:07:00,
2013-06-03 16:12:00,62.5,62.5,29.89,WSW,247,4.0,13.1,100,0.24,,,2.20,Rainwise IP-100,2013-06-03 20:12:00,
2013-06-03 16:17:00,62.4,62.5,29.89,WSW,247,4.2,11.4,100,0.30,,,2.23,Rainwise IP-100,2013-06-03 20:17:00,
2013-06-03 16:22:00,62.3,62.5,29.89,NW,315,3.5,10.7,100,0.60,,,2.31,Rainwise IP-100,2013-06-03 20:22:00,
2013-06-03 16:27:00,62.1,62.0,29.89,NW,315,8.9,8.9,100,0.78,,,2.37,Rainwise IP-100,2013-06-03 20:27:00,
2013-06-03 16:32:00,62.1,62.0,29.88,North,360,7.7,9.1,100,0.60,,,2.41,Rainwise IP-100,2013-06-03 20:32:00,
2013-06-03 16:37:00,62.1,62.0,29.88,North,360,3.0,9.8,100,0.60,,,2.46,Rainwise IP-100,2013-06-03 20:37:00,
2013-06-03 16:42:00,62.1,62.0,29.88,NW,315,3.3,7.5,100,0.72,,,2.52,Rainwise IP-100,2013-06-03 20:42:00,
2013-06-03 16:47:00,62.1,62.0,29.88,NW,315,2.3,10.7,100,0.60,,,2.56,Rainwise IP-100,2013-06-03 20:47:00,
2013-06-03 16:52:00,62.0,62.0,29.88,SSW,202,4.7,10.7,100,0.36,,,2.58,Rainwise IP-100,2013-06-03 20:52:00,
2013-06-03 16:57:00,62.0,62.0,29.88,NW,315,2.1,13.5,100,0.18,,,2.59,Rainwise IP-100,2013-06-03 20:57:00,
2013-06-03 17:02:00,62.0,62.0,29.88,WSW,247,4.0,10.3,100,0.18,,,2.61,Rainwise IP-100,2013-06-03 21:02:00,
2013-06-03 17:07:00,62.1,62.0,29.88,NW,315,5.8,10.0,100,0.18,,,2.62,Rainwise IP-100,2013-06-03 21:07:00,
2013-06-03 17:12:00,62.1,62.0,29.88,SW,225,2.6,9.3,100,0.06,,,2.62,Rainwise IP-100,2013-06-03 21:12:00,
2013-06-03 17:17:00,62.0,62.0,29.88,NW,315,2.8,10.7,100,0.00,,,2.62,Rainwise IP-100,2013-06-03 21:17:00,
2013-06-03 17:22:00,62.0,62.0,29.88,SW,225,3.0,11.4,100,0.00,,,2.62,Rainwise IP-100,2013-06-03 21:22:00,
2013-06-03 17:27:00,62.1,62.0,29.87,WSW,247,2.3,10.3,100,0.00,,,2.62,Rainwise IP-100,2013-06-03 21:27:00,
2013-06-03 17:32:00,62.4,62.5,29.87,NW,315,7.2,11.0,100,0.00,,,2.62,Rainwise IP-100,2013-06-03 21:32:00,
2013-06-03 17:37:00,62.6,62.5,29.88,North,360,4.7,9.8,100,0.00,,,2.62,Rainwise IP-100,2013-06-03 21:37:00,
2013-06-03 17:42:00,62.9,63.0,29.88,NW,315,4.0,9.1,100,0.00,,,2.62,Rainwise IP-100,2013-06-03 21:42:00,
2013-06-03 17:47:00,63.3,63.5,29.88,SW,225,1.6,9.6,100,0.00,,,2.62,Rainwise IP-100,2013-06-03 21:47:00,
2013-06-03 17:52:00,63.5,63.5,29.88,NW,315,3.7,9.1,100,0.00,,,2.62,Rainwise IP-100,2013-06-03 21:52:00,
2013-06-03 17:57:00,63.5,63.5,29.88,NW,315,8.9,12.4,100,0.00,,,2.62,Rainwise IP-100,2013-06-03 21:57:00,
2013-06-03 18:02:00,63.5,63.5,29.88,NW,315,3.0,12.4,100,0.06,,,2.63,Rainwise IP-100,2013-06-03 22:02:00,
2013-06-03 18:07:00,63.4,63.5,29.88,NW,315,9.1,12.6,100,0.06,,,2.63,Rainwise IP-100,2013-06-03 22:07:00,
2013-06-03 18:12:00,63.3,63.5,29.87,NW,315,4.2,14.7,100,0.00,,,2.63,Rainwise IP-100,2013-06-03 22:12:00,
2013-06-03 18:17:00,63.1,63.0,29.88,NW,315,3.5,9.3,100,0.00,,,2.63,Rainwise IP-100,2013-06-03 22:17:00,
2013-06-03 18:22:00,62.9,63.0,29.87,NW,315,3.7,11.7,100,0.00,,,2.63,Rainwise IP-100,2013-06-03 22:22:00,
2013-06-03 18:27:00,62.8,63.0,29.87,WSW,247,4.0,10.0,100,0.00,,,2.63,Rainwise IP-100,2013-06-03 22:27:00,
2013-06-03 18:32:00,62.7,62.5,29.87,NW,315,5.4,9.8,100,0.00,,,2.63,Rainwise IP-100,2013-06-03 22:32:00,
2013-06-03 18:37:00,62.7,62.5,29.88,North,360,1.9,12.1,100,0.00,,,2.63,Rainwise IP-100,2013-06-03 22:37:00,
2013-06-03 18:42:00,62.9,63.0,29.87,SSW,202,4.7,10.3,100,0.00,,,2.63,Rainwise IP-100,2013-06-03 22:42:00,
2013-06-03 18:47:00,63.0,63.0,29.87,NW,315,5.4,13.5,100,0.00,,,2.63,Rainwise IP-100,2013-06-03 22:47:00,
2013-06-03 18:52:00,63.1,63.0,29.87,NW,315,5.1,11.4,100,0.00,,,2.63,Rainwise IP-100,2013-06-03 22:52:00,
2013-06-03 18:57:00,63.3,63.5,29.87,WSW,247,4.9,11.0,100,0.00,,,2.63,Rainwise IP-100,2013-06-03 22:57:00,
2013-06-03 19:02:00,63.4,63.5,29.88,NW,315,7.5,9.6,100,0.00,,,2.63,Rainwise IP-100,2013-06-03 23:02:00,
2013-06-03 19:07:00,63.5,63.5,29.88,NW,315,1.4,9.6,100,0.00,,,2.63,Rainwise IP-100,2013-06-03 23:07:00,
2013-06-03 19:12:00,63.5,63.5,29.88,NW,315,1.2,10.5,100,0.00,,,2.63,Rainwise IP-100,2013-06-03 23:12:00,
2013-06-03 19:17:00,63.4,63.5,29.88,North,360,2.8,10.0,100,0.00,,,2.63,Rainwise IP-100,2013-06-03 23:17:00,
2013-06-03 19:22:00,63.4,63.5,29.88,NW,315,5.6,8.4,100,0.00,,,2.63,Rainwise IP-100,2013-06-03 23:22:00,
2013-06-03 19:27:00,63.5,63.5,29.88,North,360,0.0,7.5,100,0.00,,,2.63,Rainwise IP-100,2013-06-03 23:27:00,
2013-06-03 19:32:00,63.8,64.0,29.87,WSW,247,1.9,7.9,100,0.00,,,2.63,Rainwise IP-100,2013-06-03 23:32:00,
2013-06-03 19:37:00,64.0,64.0,29.88,WSW,247,3.7,6.5,100,0.00,,,2.63,Rainwise IP-100,2013-06-03 23:37:00,
2013-06-03 19:42:00,64.2,64.0,29.88,NW,315,4.4,7.9,100,0.00,,,2.63,Rainwise IP-100,2013-06-03 23:42:00,
2013-06-03 19:47:00,64.4,64.5,29.88,North,360,5.1,8.4,100,0.00,,,2.63,Rainwise IP-100,2013-06-03 23:47:00,
2013-06-03 19:52:00,64.5,64.5,29.88,NW,315,0.0,7.5,100,0.00,,,2.63,Rainwise IP-100,2013-06-03 23:52:00,
2013-06-03 19:57:00,64.7,64.5,29.88,North,360,2.1,7.0,100,0.00,,,2.63,Rainwise IP-100,2013-06-03 23:57:00,
2013-06-03 20:02:00,64.7,64.5,29.88,NW,315,0.0,4.9,100,0.00,,,2.63,Rainwise IP-100,2013-06-04 00:02:00,
2013-06-03 20:07:00,64.6,64.5,29.88,WSW,247,0.0,5.8,100,0.00,,,2.63,Rainwise IP-100,2013-06-04 00:07:00,
2013-06-03 20:12:00,64.4,64.5,29.88,North,360,4.4,7.2,100,0.00,,,2.63,Rainwise IP-100,2013-06-04 00:12:00,
2013-06-03 20:17:00,64.3,64.5,29.88,North,360,4.0,9.1,100,0.00,,,2.63,Rainwise IP-100,2013-06-04 00:17:00,
2013-06-03 20:22:00,64.2,64.0,29.87,North,360,4.9,6.8,100,0.00,,,2.63,Rainwise IP-100,2013-06-04 00:22:00,
2013-06-03 20:27:00,64.2,64.0,29.86,WSW,247,2.8,6.5,100,0.00,,,2.63,Rainwise IP-100,2013-06-04 00:27:00,
2013-06-03 20:32:00,64.2,64.0,29.87,SW,225,0.0,5.8,100,0.00,,,2.63,Rainwise IP-100,2013-06-04 00:32:00,
2013-06-03 20:37:00,64.2,64.0,29.87,North,360,2.3,7.9,100,0.00,,,2.63,Rainwise IP-100,2013-06-04 00:37:00,
2013-06-03 20:42:00,64.2,64.0,29.87,SW,225,0.0,4.7,100,0.00,,,2.63,Rainwise IP-100,2013-06-04 00:42:00,
2013-06-03 20:47:00,64.2,64.0,29.87,WSW,247,1.9,4.4,100,0.00,,,2.63,Rainwise IP-100,2013-06-04 00:47:00,
2013-06-03 20:52:00,64.1,64.0,29.87,WSW,247,1.2,4.9,100,0.00,,,2.63,Rainwise IP-100,2013-06-04 00:52:00,
2013-06-03 20:57:00,63.9,64.0,29.87,North,360,1.9,3.7,100,0.00,,,2.63,Rainwise IP-100,2013-06-04 00:57:00,
2013-06-03 21:02:00,63.9,64.0,29.87,WSW,247,1.2,4.4,100,0.00,,,2.63,Rainwise IP-100,2013-06-04 01:02:00,
2013-06-03 21:07:00,63.9,64.0,29.87,WSW,247,1.9,6.5,100,0.00,,,2.63,Rainwise IP-100,2013-06-04 01:07:00,
2013-06-03 21:12:00,63.9,64.0,29.87,North,360,0.0,4.9,100,0.00,,,2.63,Rainwise IP-100,2013-06-04 01:12:00,
2013-06-03 21:17:00,63.8,64.0,29.87,North,360,4.2,5.4,100,0.00,,,2.63,Rainwise IP-100,2013-06-04 01:17:00,
2013-06-03 21:22:00,63.8,64.0,29.87,North,360,4.9,5.4,100,0.00,,,2.63,Rainwise IP-100,2013-06-04 01:22:00,
2013-06-03 21:27:00,63.8,64.0,29.87,North,360,3.7,5.8,100,0.00,,,2.63,Rainwise IP-100,2013-06-04 01:27:00,
2013-06-03 21:32:00,63.8,64.0,29.87,SW,225,1.6,5.8,100,0.00,,,2.63,Rainwise IP-100,2013-06-04 01:32:00,
2013-06-03 21:37:00,63.8,64.0,29.87,North,360,2.6,4.9,100,0.00,,,2.63,Rainwise IP-100,2013-06-04 01:37:00,
2013-06-03 21:42:00,63.8,64.0,29.87,SW,225,0.0,5.4,100,0.00,,,2.63,Rainwise IP-100,2013-06-04 01:42:00,
2013-06-03 21:47:00,63.9,64.0,29.87,North,360,2.3,4.2,100,0.00,,,2.63,Rainwise IP-100,2013-06-04 01:47:00,
2013-06-03 21:52:00,63.9,64.0,29.87,SW,225,0.0,5.6,100,0.00,,,2.63,Rainwise IP-100,2013-06-04 01:52:00,
2013-06-03 21:57:00,63.9,64.0,29.88,NW,315,2.6,5.6,100,0.00,,,2.63,Rainwise IP-100,2013-06-04 01:57:00,
2013-06-03 22:02:00,63.9,64.0,29.88,NW,315,0.0,3.7,100,0.00,,,2.63,Rainwise IP-100,2013-06-04 02:02:00,
2013-06-03 22:07:00,64.0,64.0,29.88,WSW,247,0.0,4.0,100,0.00,,,2.63,Rainwise IP-100,2013-06-04 02:07:00,
2013-06-03 22:12:00,64.0,64.0,29.88,NW,315,1.6,4.4,100,0.00,,,2.63,Rainwise IP-100,2013-06-04 02:12:00,
2013-06-03 22:17:00,64.1,64.0,29.87,North,360,0.0,4.9,100,0.00,,,2.63,Rainwise IP-100,2013-06-04 02:17:00,
2013-06-03 22:22:00,64.1,64.0,29.87,NW,315,4.0,4.4,100,0.00,,,2.63,Rainwise IP-100,2013-06-04 02:22:00,
2013-06-03 22:27:00,64.3,64.5,29.88,NW,315,6.8,9.8,100,0.00,,,2.63,Rainwise IP-100,2013-06-04 02:27:00,
2013-06-03 22:32:00,64.2,64.0,29.87,North,360,2.1,9.8,100,0.00,,,2.63,Rainwise IP-100,2013-06-04 02:32:00,
2013-06-03 22:37:00,64.0,64.0,29.87,SW,225,4.0,10.0,100,0.00,,,2.63,Rainwise IP-100,2013-06-04 02:37:00,
2013-06-03 22:42:00,63.7,63.5,29.87,NW,315,2.1,8.9,100,0.00,,,2.63,Rainwise IP-100,2013-06-04 02:42:00,
2013-06-03 22:47:00,63.5,63.5,29.87,NW,315,3.7,7.2,100,0.00,,,2.63,Rainwise IP-100,2013-06-04 02:47:00,
2013-06-03 22:52:00,63.5,63.5,29.87,WSW,247,3.5,7.7,100,0.00,,,2.63,Rainwise IP-100,2013-06-04 02:52:00,
2013-06-03 22:57:00,63.5,63.5,29.86,NNW,337,2.1,7.0,100,0.00,,,2.63,Rainwise IP-100,2013-06-04 02:57:00,
2013-06-03 23:02:00,63.6,63.5,29.86,NW,315,7.9,8.4,100,0.00,,,2.63,Rainwise IP-100,2013-06-04 03:02:00,
2013-06-03 23:07:00,63.6,63.5,29.86,NW,315,6.1,9.3,100,0.00,,,2.63,Rainwise IP-100,2013-06-04 03:07:00,
2013-06-03 23:12:00,63.6,63.5,29.86,NW,315,5.8,6.8,100,0.00,,,2.63,Rainwise IP-100,2013-06-04 03:12:00,
2013-06-03 23:17:00,63.6,63.5,29.86,NW,315,3.0,12.6,100,0.00,,,2.63,Rainwise IP-100,2013-06-04 03:17:00,
2013-06-03 23:22:00,63.5,63.5,29.86,NW,315,3.0,11.2,100,0.00,,,2.63,Rainwise IP-100,2013-06-04 03:22:00,
2013-06-03 23:27:00,63.5,63.5,29.86,NW,315,3.0,9.6,100,0.00,,,2.63,Rainwise IP-100,2013-06-04 03:27:00,
2013-06-03 23:32:00,63.4,63.5,29.85,North,360,8.2,9.3,100,0.00,,,2.63,Rainwise IP-100,2013-06-04 03:32:00,
2013-06-03 23:37:00,63.3,63.5,29.85,NW,315,3.7,10.5,100,0.00,,,2.63,Rainwise IP-100,2013-06-04 03:37:00,
2013-06-03 23:42:00,63.2,63.0,29.85,NW,315,1.6,7.9,100,0.00,,,2.63,Rainwise IP-100,2013-06-04 03:42:00,
2013-06-03 23:47:00,63.2,63.0,29.85,NW,315,2.8,7.2,100,0.00,,,2.63,Rainwise IP-100,2013-06-04 03:47:00,
2013-06-03 23:52:00,63.2,63.0,29.85,NW,315,2.8,6.5,100,0.00,,,2.63,Rainwise IP-100,2013-06-04 03:52:00,
2013-06-03 23:57:00,63.1,63.0,29.85,NW,315,2.8,9.6,100,0.00,,,2.63,Rainwise IP-100,2013-06-04 03:57:00,